GRAND BAY MS US current weather conditions

sailwx.info

Wind from 004 at 1 knots gusting 7

Air temperature 23.3° C
Dewpoint 20.9° C

Last reported at 2019-Oct-16 23:25 UTC.
Time now 2019-Oct-17 00:59 UTC

Location: N 30°26' W 088°26'.
View on Google Maps.

See reports from other nearby stations

  
Tides and Currents Weather Stations Pressure Air Temp Water Temp Dewpoint Dewpoint Depression Visibility Wind Speed Wind Dir Waves Ship Positions
date/time (UTC)wind fromknots sea level pressurealtimeterstation pressurevisibilityair tempwater tempwave heightnotes
2019-Oct-16 23:25 004 1 gusting 7 23.3
2019-Oct-16 22:25 23.9
2019-Oct-16 21:25 342 5 gusting 9 25.6
2019-Oct-16 20:25 007 4 gusting 11 25.6
2019-Oct-16 19:25 330 4 gusting 11 25.0
2019-Oct-16 18:25 322 4 gusting 13 24.4
2019-Oct-16 17:25 328 2 gusting 6 23.9
2019-Oct-16 16:25 21.7
2019-Oct-16 15:25 252 2 gusting 6 21.7
2019-Oct-16 14:25 258 2 gusting 11 21.7
2019-Oct-16 13:25 304 2 gusting 6 22.2
2019-Oct-16 12:25 22.2
2019-Oct-16 11:25 22.2
2019-Oct-16 10:25 283 1 gusting 2 22.2
2019-Oct-16 09:25 202 0 gusting 2 21.7
2019-Oct-16 08:25 21.7
2019-Oct-16 07:25 175 1 gusting 2 21.7
2019-Oct-16 06:25 237 0 gusting 3 21.7
2019-Oct-16 05:25 21.7
2019-Oct-16 04:25 310 0 gusting 3 21.7
2019-Oct-16 03:25 21.7
2019-Oct-16 02:25 044 0 gusting 6 21.7
2019-Oct-16 01:25 358 5 gusting 13 23.9
2019-Oct-16 00:25 201 1 gusting 5 25.6
2019-Oct-15 23:25 192 1 gusting 6 26.7
2019-Oct-15 22:25 221 2 gusting 9 27.8
2019-Oct-15 21:25 195 4 gusting 10 29.4
2019-Oct-15 20:25 229 5 gusting 10 30.0
2019-Oct-15 19:25 235 5 gusting 10 30.0
2019-Oct-15 18:25 245 5 gusting 9 29.4
2019-Oct-15 17:25 190 5 gusting 9 28.3
2019-Oct-15 16:25 27.2
2019-Oct-15 15:25 307 1 gusting 3 27.8
2019-Oct-15 14:25 080 0 gusting 4 26.1
2019-Oct-15 13:25 22.8
2019-Oct-15 12:25 21.1
2019-Oct-15 11:25 21.1
2019-Oct-15 10:25 20.6
2019-Oct-15 09:25 20.6
2019-Oct-15 08:25 20.6
2019-Oct-15 07:25 21.1
2019-Oct-15 06:25 21.1
2019-Oct-15 05:25 21.7
2019-Oct-15 04:25 027 0 gusting 4 21.7
2019-Oct-15 03:25 056 2 gusting 3 21.1
2019-Oct-15 02:25 21.7
2019-Oct-15 01:25 059 1 gusting 6 21.7
2019-Oct-15 00:25 022 2 gusting 6 22.2